sensor_id;sensor_type;location;lat;lon;timestamp;temperature;humidity
10296;DHT22;5193;51.032;6.356;2023-02-22T00:00:21;6.50;99.90
10296;DHT22;5193;51.032;6.356;2023-02-22T00:02:53;6.50;99.90
10296;DHT22;5193;51.032;6.356;2023-02-22T00:05:24;6.50;99.90
10296;DHT22;5193;51.032;6.356;2023-02-22T00:07:51;6.50;99.90
10296;DHT22;5193;51.032;6.356;2023-02-22T00:10:17;6.50;99.90
10296;DHT22;5193;51.032;6.356;2023-02-22T00:12:50;6.50;99.90
10296;DHT22;5193;51.032;6.356;2023-02-22T00:15:18;6.50;99.90
10296;DHT22;5193;51.032;6.356;2023-02-22T00:17:44;6.50;99.90
10296;DHT22;5193;51.032;6.356;2023-02-22T00:20:11;6.50;99.90
10296;DHT22;5193;51.032;6.356;2023-02-22T00:22:45;6.40;99.90
10296;DHT22;5193;51.032;6.356;2023-02-22T00:25:12;6.40;99.90
10296;DHT22;5193;51.032;6.356;2023-02-22T00:27:38;6.40;99.90
10296;DHT22;5193;51.032;6.356;2023-02-22T00:30:05;6.40;99.90
10296;DHT22;5193;51.032;6.356;2023-02-22T00:32:31;6.40;99.90
10296;DHT22;5193;51.032;6.356;2023-02-22T00:34:57;6.40;99.90
10296;DHT22;5193;51.032;6.356;2023-02-22T00:37:23;6.40;99.90
10296;DHT22;5193;51.032;6.356;2023-02-22T00:39:50;6.40;99.90
10296;DHT22;5193;51.032;6.356;2023-02-22T00:42:17;6.40;99.90
10296;DHT22;5193;51.032;6.356;2023-02-22T00:44:43;6.40;99.90
10296;DHT22;5193;51.032;6.356;2023-02-22T00:47:09;6.40;99.90
10296;DHT22;5193;51.032;6.356;2023-02-22T00:49:35;6.30;99.90
10296;DHT22;5193;51.032;6.356;2023-02-22T00:52:01;6.30;99.90
10296;DHT22;5193;51.032;6.356;2023-02-22T00:54:26;6.40;99.90
10296;DHT22;5193;51.032;6.356;2023-02-22T00:56:52;6.40;99.90
10296;DHT22;5193;51.032;6.356;2023-02-22T00:59:18;6.40;99.90
10296;DHT22;5193;51.032;6.356;2023-02-22T01:01:43;6.40;99.90
10296;DHT22;5193;51.032;6.356;2023-02-22T01:04:09;6.40;99.90
10296;DHT22;5193;51.032;6.356;2023-02-22T01:06:35;6.40;99.90
10296;DHT22;5193;51.032;6.356;2023-02-22T01:09:02;6.40;99.90
10296;DHT22;5193;51.032;6.356;2023-02-22T01:11:28;6.40;99.90
10296;DHT22;5193;51.032;6.356;2023-02-22T01:13:54;6.40;99.90
10296;DHT22;5193;51.032;6.356;2023-02-22T01:16:21;6.40;99.90
10296;DHT22;5193;51.032;6.356;2023-02-22T01:18:46;6.40;99.90
10296;DHT22;5193;51.032;6.356;2023-02-22T01:21:12;6.40;99.90
10296;DHT22;5193;51.032;6.356;2023-02-22T01:23:38;6.40;99.90
10296;DHT22;5193;51.032;6.356;2023-02-22T01:26:04;6.40;99.90
10296;DHT22;5193;51.032;6.356;2023-02-22T01:28:31;6.40;99.90
10296;DHT22;5193;51.032;6.356;2023-02-22T01:30:57;6.40;99.90
10296;DHT22;5193;51.032;6.356;2023-02-22T01:33:22;6.40;99.90
10296;DHT22;5193;51.032;6.356;2023-02-22T01:35:48;6.40;99.90
10296;DHT22;5193;51.032;6.356;2023-02-22T01:38:15;6.40;99.90
10296;DHT22;5193;51.032;6.356;2023-02-22T01:40:45;6.40;99.90
10296;DHT22;5193;51.032;6.356;2023-02-22T01:43:26;6.40;99.90
10296;DHT22;5193;51.032;6.356;2023-02-22T01:45:58;6.30;99.90
10296;DHT22;5193;51.032;6.356;2023-02-22T01:50:59;6.30;99.90
10296;DHT22;5193;51.032;6.356;2023-02-22T01:53:31;6.30;99.90
10296;DHT22;5193;51.032;6.356;2023-02-22T01:55:59;6.30;99.90
10296;DHT22;5193;51.032;6.356;2023-02-22T01:58:25;6.30;99.90
10296;DHT22;5193;51.032;6.356;2023-02-22T02:00:52;6.30;99.90
10296;DHT22;5193;51.032;6.356;2023-02-22T02:03:24;6.30;99.90
10296;DHT22;5193;51.032;6.356;2023-02-22T02:05:54;6.30;99.90
10296;DHT22;5193;51.032;6.356;2023-02-22T02:08:41;6.30;99.90
10296;DHT22;5193;51.032;6.356;2023-02-22T02:11:11;6.30;99.90
10296;DHT22;5193;51.032;6.356;2023-02-22T02:13:37;6.20;99.90
10296;DHT22;5193;51.032;6.356;2023-02-22T02:16:03;6.30;99.90
10296;DHT22;5193;51.032;6.356;2023-02-22T02:18:29;6.20;99.90
10296;DHT22;5193;51.032;6.356;2023-02-22T02:21:37;6.20;99.90
10296;DHT22;5193;51.032;6.356;2023-02-22T02:26:56;6.20;99.90
10296;DHT22;5193;51.032;6.356;2023-02-22T02:29:50;6.20;99.90
10296;DHT22;5193;51.032;6.356;2023-02-22T02:35:00;6.10;99.90
10296;DHT22;5193;51.032;6.356;2023-02-22T02:37:52;6.10;99.90
10296;DHT22;5193;51.032;6.356;2023-02-22T02:43:02;6.00;99.90
10296;DHT22;5193;51.032;6.356;2023-02-22T02:48:25;6.00;99.90
10296;DHT22;5193;51.032;6.356;2023-02-22T02:50:54;5.90;99.90
10296;DHT22;5193;51.032;6.356;2023-02-22T02:53:25;5.90;99.90
10296;DHT22;5193;51.032;6.356;2023-02-22T02:55:51;5.90;99.90
10296;DHT22;5193;51.032;6.356;2023-02-22T02:58:20;5.90;99.90
10296;DHT22;5193;51.032;6.356;2023-02-22T03:00:47;5.80;99.90
10296;DHT22;5193;51.032;6.356;2023-02-22T03:08:57;5.80;99.90
10296;DHT22;5193;51.032;6.356;2023-02-22T03:11:28;5.80;99.90
10296;DHT22;5193;51.032;6.356;2023-02-22T03:14:37;5.80;99.90
10296;DHT22;5193;51.032;6.356;2023-02-22T03:17:06;5.80;99.90
10296;DHT22;5193;51.032;6.356;2023-02-22T03:19:43;5.70;99.90
10296;DHT22;5193;51.032;6.356;2023-02-22T03:22:21;5.80;99.90
10296;DHT22;5193;51.032;6.356;2023-02-22T03:25:11;5.80;99.90
10296;DHT22;5193;51.032;6.356;2023-02-22T03:27:52;5.80;99.90
10296;DHT22;5193;51.032;6.356;2023-02-22T03:30:34;5.80;99.90
10296;DHT22;5193;51.032;6.356;2023-02-22T03:33:06;5.70;99.90
10296;DHT22;5193;51.032;6.356;2023-02-22T03:35:38;5.70;99.90
10296;DHT22;5193;51.032;6.356;2023-02-22T03:38:08;5.70;99.90
10296;DHT22;5193;51.032;6.356;2023-02-22T03:40:42;5.70;99.90
10296;DHT22;5193;51.032;6.356;2023-02-22T03:43:18;5.70;99.90
10296;DHT22;5193;51.032;6.356;2023-02-22T03:45:47;5.70;99.90
10296;DHT22;5193;51.032;6.356;2023-02-22T03:48:16;5.70;99.90
10296;DHT22;5193;51.032;6.356;2023-02-22T03:50:44;5.70;99.90
10296;DHT22;5193;51.032;6.356;2023-02-22T03:53:09;5.70;99.90
10296;DHT22;5193;51.032;6.356;2023-02-22T03:55:35;5.70;99.90
10296;DHT22;5193;51.032;6.356;2023-02-22T03:58:08;5.70;99.90
10296;DHT22;5193;51.032;6.356;2023-02-22T04:00:35;5.70;99.90
10296;DHT22;5193;51.032;6.356;2023-02-22T04:03:01;5.70;99.90
10296;DHT22;5193;51.032;6.356;2023-02-22T04:05:27;5.70;99.90
10296;DHT22;5193;51.032;6.356;2023-02-22T04:07:55;5.70;99.90
10296;DHT22;5193;51.032;6.356;2023-02-22T04:10:22;5.70;99.90
10296;DHT22;5193;51.032;6.356;2023-02-22T04:12:48;5.70;99.90
10296;DHT22;5193;51.032;6.356;2023-02-22T04:15:20;5.70;99.90
10296;DHT22;5193;51.032;6.356;2023-02-22T04:17:46;5.70;99.90
10296;DHT22;5193;51.032;6.356;2023-02-22T04:20:11;5.70;99.90
10296;DHT22;5193;51.032;6.356;2023-02-22T04:22:41;5.70;99.90
10296;DHT22;5193;51.032;6.356;2023-02-22T04:25:07;5.70;99.90
10296;DHT22;5193;51.032;6.356;2023-02-22T04:27:33;5.60;99.90
10296;DHT22;5193;51.032;6.356;2023-02-22T04:29:58;5.60;99.90
10296;DHT22;5193;51.032;6.356;2023-02-22T04:32:24;5.60;99.90
10296;DHT22;5193;51.032;6.356;2023-02-22T04:34:49;5.60;99.90
10296;DHT22;5193;51.032;6.356;2023-02-22T04:37:15;5.60;99.90
10296;DHT22;5193;51.032;6.356;2023-02-22T04:39:40;5.50;99.90
10296;DHT22;5193;51.032;6.356;2023-02-22T04:42:06;5.50;99.90
10296;DHT22;5193;51.032;6.356;2023-02-22T04:44:31;5.40;99.90
10296;DHT22;5193;51.032;6.356;2023-02-22T04:46:57;5.40;99.90
10296;DHT22;5193;51.032;6.356;2023-02-22T04:49:23;5.30;99.90
10296;DHT22;5193;51.032;6.356;2023-02-22T04:51:49;5.30;99.90
10296;DHT22;5193;51.032;6.356;2023-02-22T04:54:14;5.30;99.90
10296;DHT22;5193;51.032;6.356;2023-02-22T04:56:42;5.30;99.90
10296;DHT22;5193;51.032;6.356;2023-02-22T04:59:07;5.20;99.90
10296;DHT22;5193;51.032;6.356;2023-02-22T05:01:34;5.20;99.90
10296;DHT22;5193;51.032;6.356;2023-02-22T05:04:04;5.20;99.90
10296;DHT22;5193;51.032;6.356;2023-02-22T05:06:29;5.20;99.90
10296;DHT22;5193;51.032;6.356;2023-02-22T05:08:55;5.10;99.90
10296;DHT22;5193;51.032;6.356;2023-02-22T05:11:21;5.10;99.90
10296;DHT22;5193;51.032;6.356;2023-02-22T05:13:47;5.10;99.90
10296;DHT22;5193;51.032;6.356;2023-02-22T05:16:13;5.10;99.90
10296;DHT22;5193;51.032;6.356;2023-02-22T05:18:39;5.00;99.90
10296;DHT22;5193;51.032;6.356;2023-02-22T05:21:04;5.00;99.90
10296;DHT22;5193;51.032;6.356;2023-02-22T05:23:31;5.00;99.90
10296;DHT22;5193;51.032;6.356;2023-02-22T05:25:57;5.00;99.90
10296;DHT22;5193;51.032;6.356;2023-02-22T05:28:23;5.00;99.90
10296;DHT22;5193;51.032;6.356;2023-02-22T05:30:48;5.00;99.90
10296;DHT22;5193;51.032;6.356;2023-02-22T05:33:14;5.00;99.90
10296;DHT22;5193;51.032;6.356;2023-02-22T05:35:40;5.00;99.90
10296;DHT22;5193;51.032;6.356;2023-02-22T05:38:06;4.90;99.90
10296;DHT22;5193;51.032;6.356;2023-02-22T05:40:32;4.90;99.90
10296;DHT22;5193;51.032;6.356;2023-02-22T05:42:57;4.80;99.90
10296;DHT22;5193;51.032;6.356;2023-02-22T05:45:26;4.80;99.90
10296;DHT22;5193;51.032;6.356;2023-02-22T05:47:52;4.80;99.90
10296;DHT22;5193;51.032;6.356;2023-02-22T05:50:18;4.70;99.90
10296;DHT22;5193;51.032;6.356;2023-02-22T05:52:45;4.70;99.90
10296;DHT22;5193;51.032;6.356;2023-02-22T05:55:13;4.70;99.90
10296;DHT22;5193;51.032;6.356;2023-02-22T05:57:40;4.70;99.90
10296;DHT22;5193;51.032;6.356;2023-02-22T06:00:06;4.60;99.90
10296;DHT22;5193;51.032;6.356;2023-02-22T06:02:33;4.60;99.90
10296;DHT22;5193;51.032;6.356;2023-02-22T06:04:59;4.60;99.90
10296;DHT22;5193;51.032;6.356;2023-02-22T06:07:25;4.60;99.90
10296;DHT22;5193;51.032;6.356;2023-02-22T06:09:51;4.60;99.90
10296;DHT22;5193;51.032;6.356;2023-02-22T06:12:17;4.60;99.90
10296;DHT22;5193;51.032;6.356;2023-02-22T06:14:43;4.60;99.90
10296;DHT22;5193;51.032;6.356;2023-02-22T06:17:13;4.60;99.90
10296;DHT22;5193;51.032;6.356;2023-02-22T06:19:39;4.60;99.90
10296;DHT22;5193;51.032;6.356;2023-02-22T06:22:05;4.60;99.90
10296;DHT22;5193;51.032;6.356;2023-02-22T06:24:31;4.50;99.90
10296;DHT22;5193;51.032;6.356;2023-02-22T06:27:01;4.50;99.90
10296;DHT22;5193;51.032;6.356;2023-02-22T06:29:27;4.50;99.90
10296;DHT22;5193;51.032;6.356;2023-02-22T06:31:53;4.50;99.90
10296;DHT22;5193;51.032;6.356;2023-02-22T06:34:19;4.40;99.90
10296;DHT22;5193;51.032;6.356;2023-02-22T06:36:46;4.50;99.90
10296;DHT22;5193;51.032;6.356;2023-02-22T06:39:16;4.50;99.90
10296;DHT22;5193;51.032;6.356;2023-02-22T06:41:44;4.40;99.90
10296;DHT22;5193;51.032;6.356;2023-02-22T06:44:11;4.40;99.90
10296;DHT22;5193;51.032;6.356;2023-02-22T06:46:37;4.40;99.90
10296;DHT22;5193;51.032;6.356;2023-02-22T06:49:03;4.40;99.90
10296;DHT22;5193;51.032;6.356;2023-02-22T06:51:29;4.40;99.90
10296;DHT22;5193;51.032;6.356;2023-02-22T06:53:55;4.40;99.90
10296;DHT22;5193;51.032;6.356;2023-02-22T06:56:21;4.40;99.90
10296;DHT22;5193;51.032;6.356;2023-02-22T06:58:46;4.40;99.90
10296;DHT22;5193;51.032;6.356;2023-02-22T07:01:13;4.40;99.90
10296;DHT22;5193;51.032;6.356;2023-02-22T07:03:39;4.40;99.90
10296;DHT22;5193;51.032;6.356;2023-02-22T07:06:06;4.40;99.90
10296;DHT22;5193;51.032;6.356;2023-02-22T07:08:31;4.40;99.90
10296;DHT22;5193;51.032;6.356;2023-02-22T07:10:57;4.30;99.90
10296;DHT22;5193;51.032;6.356;2023-02-22T07:13:22;4.30;99.90
10296;DHT22;5193;51.032;6.356;2023-02-22T07:15:48;4.40;99.90
10296;DHT22;5193;51.032;6.356;2023-02-22T07:18:13;4.30;99.90
10296;DHT22;5193;51.032;6.356;2023-02-22T07:20:41;4.40;99.90
10296;DHT22;5193;51.032;6.356;2023-02-22T07:23:06;4.40;99.90
10296;DHT22;5193;51.032;6.356;2023-02-22T07:25:32;4.40;99.90
10296;DHT22;5193;51.032;6.356;2023-02-22T07:27:58;4.40;99.90
10296;DHT22;5193;51.032;6.356;2023-02-22T07:30:30;4.40;99.90
10296;DHT22;5193;51.032;6.356;2023-02-22T07:32:57;4.40;99.90
10296;DHT22;5193;51.032;6.356;2023-02-22T07:35:29;4.50;99.90
10296;DHT22;5193;51.032;6.356;2023-02-22T07:37:55;4.50;99.90
10296;DHT22;5193;51.032;6.356;2023-02-22T07:40:21;4.50;99.90
10296;DHT22;5193;51.032;6.356;2023-02-22T07:43:00;4.60;99.90
10296;DHT22;5193;51.032;6.356;2023-02-22T07:45:35;4.60;99.90
10296;DHT22;5193;51.032;6.356;2023-02-22T07:48:03;4.70;99.90
10296;DHT22;5193;51.032;6.356;2023-02-22T07:50:30;4.70;99.90
10296;DHT22;5193;51.032;6.356;2023-02-22T07:52:58;4.70;99.90
10296;DHT22;5193;51.032;6.356;2023-02-22T07:55:27;4.80;99.90
10296;DHT22;5193;51.032;6.356;2023-02-22T07:57:55;4.90;99.90
10296;DHT22;5193;51.032;6.356;2023-02-22T08:00:24;4.90;99.90
10296;DHT22;5193;51.032;6.356;2023-02-22T08:02:50;5.00;99.90
10296;DHT22;5193;51.032;6.356;2023-02-22T08:05:15;5.10;99.90
10296;DHT22;5193;51.032;6.356;2023-02-22T08:07:41;5.20;99.90
10296;DHT22;5193;51.032;6.356;2023-02-22T08:10:09;5.20;99.90
10296;DHT22;5193;51.032;6.356;2023-02-22T08:12:36;5.30;99.90
10296;DHT22;5193;51.032;6.356;2023-02-22T08:15:03;5.30;99.90
10296;DHT22;5193;51.032;6.356;2023-02-22T08:17:29;5.40;99.90
10296;DHT22;5193;51.032;6.356;2023-02-22T08:19:54;5.50;99.90
10296;DHT22;5193;51.032;6.356;2023-02-22T08:22:21;5.60;99.90
10296;DHT22;5193;51.032;6.356;2023-02-22T08:24:46;5.70;99.90
10296;DHT22;5193;51.032;6.356;2023-02-22T08:27:12;5.70;99.90
10296;DHT22;5193;51.032;6.356;2023-02-22T08:29:38;5.80;99.90
10296;DHT22;5193;51.032;6.356;2023-02-22T08:32:03;5.80;99.90
10296;DHT22;5193;51.032;6.356;2023-02-22T08:34:29;5.90;99.90
10296;DHT22;5193;51.032;6.356;2023-02-22T08:36:54;5.90;99.90
10296;DHT22;5193;51.032;6.356;2023-02-22T08:39:20;6.00;99.90
10296;DHT22;5193;51.032;6.356;2023-02-22T08:41:46;6.00;99.90
10296;DHT22;5193;51.032;6.356;2023-02-22T08:44:12;6.10;99.90
10296;DHT22;5193;51.032;6.356;2023-02-22T08:46:37;6.20;99.90
10296;DHT22;5193;51.032;6.356;2023-02-22T08:49:03;6.20;99.90
10296;DHT22;5193;51.032;6.356;2023-02-22T08:51:34;6.30;99.90
10296;DHT22;5193;51.032;6.356;2023-02-22T08:54:00;6.40;99.90
10296;DHT22;5193;51.032;6.356;2023-02-22T08:56:28;6.50;99.90
10296;DHT22;5193;51.032;6.356;2023-02-22T08:58:54;6.60;99.90
10296;DHT22;5193;51.032;6.356;2023-02-22T09:01:22;6.70;99.90
10296;DHT22;5193;51.032;6.356;2023-02-22T09:03:49;6.80;99.90
10296;DHT22;5193;51.032;6.356;2023-02-22T09:06:15;6.80;99.90
10296;DHT22;5193;51.032;6.356;2023-02-22T09:08:41;6.90;99.90
10296;DHT22;5193;51.032;6.356;2023-02-22T09:11:06;7.00;99.90
10296;DHT22;5193;51.032;6.356;2023-02-22T09:13:32;7.10;99.90
10296;DHT22;5193;51.032;6.356;2023-02-22T09:15:57;7.20;99.90
10296;DHT22;5193;51.032;6.356;2023-02-22T09:18:23;7.30;99.90
10296;DHT22;5193;51.032;6.356;2023-02-22T09:20:48;7.40;99.90
10296;DHT22;5193;51.032;6.356;2023-02-22T09:23:14;7.40;99.90
10296;DHT22;5193;51.032;6.356;2023-02-22T09:25:39;7.50;99.90
10296;DHT22;5193;51.032;6.356;2023-02-22T09:28:05;7.50;99.90
10296;DHT22;5193;51.032;6.356;2023-02-22T09:30:35;7.60;99.90
10296;DHT22;5193;51.032;6.356;2023-02-22T09:33:06;7.70;99.90
10296;DHT22;5193;51.032;6.356;2023-02-22T09:35:34;7.80;99.90
10296;DHT22;5193;51.032;6.356;2023-02-22T09:38:02;7.90;99.90
10296;DHT22;5193;51.032;6.356;2023-02-22T09:40:32;8.00;99.90
10296;DHT22;5193;51.032;6.356;2023-02-22T09:51:54;8.50;99.90
10296;DHT22;5193;51.032;6.356;2023-02-22T09:54:28;8.60;99.90
10296;DHT22;5193;51.032;6.356;2023-02-22T09:57:01;8.70;99.90
10296;DHT22;5193;51.032;6.356;2023-02-22T09:59:32;8.80;99.90
10296;DHT22;5193;51.032;6.356;2023-02-22T10:02:04;8.90;99.90
10296;DHT22;5193;51.032;6.356;2023-02-22T10:04:48;9.00;99.90
10296;DHT22;5193;51.032;6.356;2023-02-22T10:09:51;9.40;99.90
10296;DHT22;5193;51.032;6.356;2023-02-22T10:21:10;10.00;99.90
10296;DHT22;5193;51.032;6.356;2023-02-22T10:26:44;10.20;99.90
10296;DHT22;5193;51.032;6.356;2023-02-22T10:31:51;10.50;99.90
10296;DHT22;5193;51.032;6.356;2023-02-22T10:34:23;10.70;99.90
10296;DHT22;5193;51.032;6.356;2023-02-22T10:36:54;10.80;99.90
10296;DHT22;5193;51.032;6.356;2023-02-22T10:39:32;10.90;99.90
10296;DHT22;5193;51.032;6.356;2023-02-22T10:42:01;11.10;99.90
10296;DHT22;5193;51.032;6.356;2023-02-22T10:44:32;11.10;99.90
10296;DHT22;5193;51.032;6.356;2023-02-22T10:46:59;11.20;99.90
10296;DHT22;5193;51.032;6.356;2023-02-22T10:49:32;11.30;99.90
10296;DHT22;5193;51.032;6.356;2023-02-22T10:52:01;11.40;99.90
10296;DHT22;5193;51.032;6.356;2023-02-22T10:54:40;11.50;99.90
10296;DHT22;5193;51.032;6.356;2023-02-22T10:57:08;11.60;99.90
10296;DHT22;5193;51.032;6.356;2023-02-22T10:59:37;11.70;99.90
10296;DHT22;5193;51.032;6.356;2023-02-22T11:04:54;12.00;99.90
10296;DHT22;5193;51.032;6.356;2023-02-22T11:10:00;12.20;99.90
10296;DHT22;5193;51.032;6.356;2023-02-22T11:12:37;12.30;99.90
10296;DHT22;5193;51.032;6.356;2023-02-22T11:15:26;12.40;99.90
10296;DHT22;5193;51.032;6.356;2023-02-22T11:17:55;12.50;99.90
10296;DHT22;5193;51.032;6.356;2023-02-22T11:20:28;12.60;99.90
10296;DHT22;5193;51.032;6.356;2023-02-22T11:22:59;12.80;99.90
10296;DHT22;5193;51.032;6.356;2023-02-22T11:25:30;12.90;99.90
10296;DHT22;5193;51.032;6.356;2023-02-22T11:28:11;13.00;99.90
10296;DHT22;5193;51.032;6.356;2023-02-22T11:30:40;13.10;99.90
10296;DHT22;5193;51.032;6.356;2023-02-22T11:33:20;13.20;99.90
10296;DHT22;5193;51.032;6.356;2023-02-22T11:35:57;13.30;99.90
10296;DHT22;5193;51.032;6.356;2023-02-22T11:38:29;13.40;99.90
10296;DHT22;5193;51.032;6.356;2023-02-22T11:44:31;13.50;99.90
10296;DHT22;5193;51.032;6.356;2023-02-22T11:46:59;13.60;99.90
10296;DHT22;5193;51.032;6.356;2023-02-22T11:49:36;13.80;99.90
10296;DHT22;5193;51.032;6.356;2023-02-22T11:52:31;13.90;99.90
10296;DHT22;5193;51.032;6.356;2023-02-22T11:55:22;14.00;99.90
10296;DHT22;5193;51.032;6.356;2023-02-22T12:03:41;14.30;99.90
10296;DHT22;5193;51.032;6.356;2023-02-22T12:09:07;14.40;99.90
10296;DHT22;5193;51.032;6.356;2023-02-22T12:12:03;14.50;99.90
10296;DHT22;5193;51.032;6.356;2023-02-22T12:15:05;14.60;99.90
10296;DHT22;5193;51.032;6.356;2023-02-22T12:20:13;14.70;99.90
10296;DHT22;5193;51.032;6.356;2023-02-22T12:23:05;14.80;99.90
10296;DHT22;5193;51.032;6.356;2023-02-22T12:25:40;14.90;99.90
10296;DHT22;5193;51.032;6.356;2023-02-22T12:28:21;15.00;99.90
10296;DHT22;5193;51.032;6.356;2023-02-22T12:30:55;15.10;99.90
10296;DHT22;5193;51.032;6.356;2023-02-22T12:33:27;15.20;99.90
10296;DHT22;5193;51.032;6.356;2023-02-22T12:35:57;15.30;99.90
10296;DHT22;5193;51.032;6.356;2023-02-22T12:38:45;15.30;99.90
10296;DHT22;5193;51.032;6.356;2023-02-22T12:44:09;15.50;99.90
10296;DHT22;5193;51.032;6.356;2023-02-22T12:46:43;15.60;99.90
10296;DHT22;5193;51.032;6.356;2023-02-22T12:49:58;15.60;99.90
10296;DHT22;5193;51.032;6.356;2023-02-22T12:55:03;15.80;99.90
10296;DHT22;5193;51.032;6.356;2023-02-22T13:02:52;16.00;99.90
10296;DHT22;5193;51.032;6.356;2023-02-22T13:05:21;16.10;99.90
10296;DHT22;5193;51.032;6.356;2023-02-22T13:10:33;16.20;99.90
10296;DHT22;5193;51.032;6.356;2023-02-22T13:13:39;16.30;99.90
10296;DHT22;5193;51.032;6.356;2023-02-22T13:16:09;16.30;99.90
10296;DHT22;5193;51.032;6.356;2023-02-22T13:18:56;16.20;99.90
10296;DHT22;5193;51.032;6.356;2023-02-22T13:21:39;16.20;99.90
10296;DHT22;5193;51.032;6.356;2023-02-22T13:24:25;16.20;99.90
10296;DHT22;5193;51.032;6.356;2023-02-22T13:27:03;16.20;99.90
10296;DHT22;5193;51.032;6.356;2023-02-22T13:29:34;16.20;99.90
10296;DHT22;5193;51.032;6.356;2023-02-22T13:32:12;16.20;99.90
10296;DHT22;5193;51.032;6.356;2023-02-22T13:34:59;16.30;99.90
10296;DHT22;5193;51.032;6.356;2023-02-22T13:37:41;16.40;99.90
10296;DHT22;5193;51.032;6.356;2023-02-22T13:52:08;16.60;99.90
10296;DHT22;5193;51.032;6.356;2023-02-22T13:54:38;16.50;99.90
10296;DHT22;5193;51.032;6.356;2023-02-22T13:57:18;16.50;99.90
10296;DHT22;5193;51.032;6.356;2023-02-22T13:59:44;16.50;99.90
10296;DHT22;5193;51.032;6.356;2023-02-22T14:02:32;16.50;99.90
10296;DHT22;5193;51.032;6.356;2023-02-22T14:10:49;16.30;99.90
10296;DHT22;5193;51.032;6.356;2023-02-22T14:13:20;16.10;99.90
10296;DHT22;5193;51.032;6.356;2023-02-22T14:18:48;16.00;99.90
10296;DHT22;5193;51.032;6.356;2023-02-22T14:21:17;16.00;99.90
10296;DHT22;5193;51.032;6.356;2023-02-22T14:23:53;16.00;99.90
10296;DHT22;5193;51.032;6.356;2023-02-22T14:26:37;16.00;99.90
10296;DHT22;5193;51.032;6.356;2023-02-22T14:31:58;15.90;99.90
10296;DHT22;5193;51.032;6.356;2023-02-22T14:37:43;15.80;99.90
10296;DHT22;5193;51.032;6.356;2023-02-22T14:40:25;15.80;99.90
10296;DHT22;5193;51.032;6.356;2023-02-22T14:43:02;15.70;99.90
10296;DHT22;5193;51.032;6.356;2023-02-22T14:45:31;15.60;99.90
10296;DHT22;5193;51.032;6.356;2023-02-22T14:48:04;15.60;99.90
10296;DHT22;5193;51.032;6.356;2023-02-22T14:56:00;15.30;99.90
10296;DHT22;5193;51.032;6.356;2023-02-22T15:01:36;15.30;99.90
10296;DHT22;5193;51.032;6.356;2023-02-22T15:04:25;15.20;99.90
10296;DHT22;5193;51.032;6.356;2023-02-22T15:06:52;15.20;99.90
10296;DHT22;5193;51.032;6.356;2023-02-22T15:09:30;15.20;99.90
10296;DHT22;5193;51.032;6.356;2023-02-22T15:14:28;15.10;99.90
10296;DHT22;5193;51.032;6.356;2023-02-22T15:16:58;15.10;99.90
10296;DHT22;5193;51.032;6.356;2023-02-22T15:19:30;15.10;99.90
10296;DHT22;5193;51.032;6.356;2023-02-22T15:21:58;15.10;99.90
10296;DHT22;5193;51.032;6.356;2023-02-22T15:24:29;15.10;99.90
10296;DHT22;5193;51.032;6.356;2023-02-22T15:27:05;15.00;99.90
10296;DHT22;5193;51.032;6.356;2023-02-22T15:29:37;14.90;99.90
10296;DHT22;5193;51.032;6.356;2023-02-22T15:34:49;14.80;99.90
10296;DHT22;5193;51.032;6.356;2023-02-22T15:37:22;14.80;99.90
10296;DHT22;5193;51.032;6.356;2023-02-22T15:39:50;14.70;99.90
10296;DHT22;5193;51.032;6.356;2023-02-22T15:42:24;14.70;99.90
10296;DHT22;5193;51.032;6.356;2023-02-22T15:44:52;14.70;99.90
10296;DHT22;5193;51.032;6.356;2023-02-22T15:47:29;14.60;99.90
10296;DHT22;5193;51.032;6.356;2023-02-22T15:53:08;14.40;99.90
10296;DHT22;5193;51.032;6.356;2023-02-22T15:55:54;14.30;99.90
10296;DHT22;5193;51.032;6.356;2023-02-22T15:58:22;14.30;99.90
10296;DHT22;5193;51.032;6.356;2023-02-22T16:01:10;14.20;99.90
10296;DHT22;5193;51.032;6.356;2023-02-22T16:03:43;14.10;99.90
10296;DHT22;5193;51.032;6.356;2023-02-22T16:06:35;14.10;99.90
10296;DHT22;5193;51.032;6.356;2023-02-22T16:09:09;14.10;99.90
10296;DHT22;5193;51.032;6.356;2023-02-22T16:11:38;14.00;99.90
10296;DHT22;5193;51.032;6.356;2023-02-22T16:14:49;14.00;99.90
10296;DHT22;5193;51.032;6.356;2023-02-22T16:19:50;13.80;99.90
10296;DHT22;5193;51.032;6.356;2023-02-22T16:22:32;13.80;99.90
10296;DHT22;5193;51.032;6.356;2023-02-22T16:25:22;13.70;99.90
10296;DHT22;5193;51.032;6.356;2023-02-22T16:27:57;13.70;99.90
10296;DHT22;5193;51.032;6.356;2023-02-22T16:30:29;13.60;99.90
10296;DHT22;5193;51.032;6.356;2023-02-22T16:32:57;13.50;99.90
10296;DHT22;5193;51.032;6.356;2023-02-22T16:35:24;13.50;99.90
10296;DHT22;5193;51.032;6.356;2023-02-22T16:38:01;13.40;99.90
10296;DHT22;5193;51.032;6.356;2023-02-22T16:40:31;13.30;99.90
10296;DHT22;5193;51.032;6.356;2023-02-22T16:43:03;13.20;99.90
10296;DHT22;5193;51.032;6.356;2023-02-22T16:45:30;13.20;99.90
10296;DHT22;5193;51.032;6.356;2023-02-22T16:47:57;13.10;99.90
10296;DHT22;5193;51.032;6.356;2023-02-22T16:50:22;13.00;99.90
10296;DHT22;5193;51.032;6.356;2023-02-22T16:52:50;13.00;99.90
10296;DHT22;5193;51.032;6.356;2023-02-22T16:55:18;12.90;99.90
10296;DHT22;5193;51.032;6.356;2023-02-22T16:57:45;12.90;99.90
10296;DHT22;5193;51.032;6.356;2023-02-22T17:00:21;12.80;99.90
10296;DHT22;5193;51.032;6.356;2023-02-22T17:03:02;12.70;99.90
10296;DHT22;5193;51.032;6.356;2023-02-22T17:05:29;12.70;99.90
10296;DHT22;5193;51.032;6.356;2023-02-22T17:07:55;12.60;99.90
10296;DHT22;5193;51.032;6.356;2023-02-22T17:10:21;12.50;99.90
10296;DHT22;5193;51.032;6.356;2023-02-22T17:12:49;12.50;99.90
10296;DHT22;5193;51.032;6.356;2023-02-22T17:15:23;12.40;99.90
10296;DHT22;5193;51.032;6.356;2023-02-22T17:17:50;12.30;99.90
10296;DHT22;5193;51.032;6.356;2023-02-22T17:20:17;12.30;99.90
10296;DHT22;5193;51.032;6.356;2023-02-22T17:22:56;12.20;99.90
10296;DHT22;5193;51.032;6.356;2023-02-22T17:25:25;12.20;99.90
10296;DHT22;5193;51.032;6.356;2023-02-22T17:27:51;12.20;99.90
10296;DHT22;5193;51.032;6.356;2023-02-22T17:30:17;12.10;99.90
10296;DHT22;5193;51.032;6.356;2023-02-22T17:32:48;12.10;99.90
10296;DHT22;5193;51.032;6.356;2023-02-22T17:35:19;12.10;99.90
10296;DHT22;5193;51.032;6.356;2023-02-22T17:37:51;12.00;99.90
10296;DHT22;5193;51.032;6.356;2023-02-22T17:40:17;12.00;99.90
10296;DHT22;5193;51.032;6.356;2023-02-22T17:42:43;11.90;99.90
10296;DHT22;5193;51.032;6.356;2023-02-22T17:45:10;11.80;99.90
10296;DHT22;5193;51.032;6.356;2023-02-22T17:47:39;11.80;99.90
10296;DHT22;5193;51.032;6.356;2023-02-22T17:50:06;11.70;99.90
10296;DHT22;5193;51.032;6.356;2023-02-22T17:52:31;11.60;99.90
10296;DHT22;5193;51.032;6.356;2023-02-22T17:54:57;11.60;99.90
10296;DHT22;5193;51.032;6.356;2023-02-22T17:57:23;11.50;99.90
10296;DHT22;5193;51.032;6.356;2023-02-22T17:59:49;11.40;99.90
10296;DHT22;5193;51.032;6.356;2023-02-22T18:02:15;11.30;99.90
10296;DHT22;5193;51.032;6.356;2023-02-22T18:04:40;11.30;99.90
10296;DHT22;5193;51.032;6.356;2023-02-22T18:07:06;11.20;99.90
10296;DHT22;5193;51.032;6.356;2023-02-22T18:09:36;11.20;99.90
10296;DHT22;5193;51.032;6.356;2023-02-22T18:12:02;11.20;99.90
10296;DHT22;5193;51.032;6.356;2023-02-22T18:14:27;11.10;99.90
10296;DHT22;5193;51.032;6.356;2023-02-22T18:16:54;11.10;99.90
10296;DHT22;5193;51.032;6.356;2023-02-22T18:19:19;11.00;99.90